Private Wetterstation Wechselburg
Wetterdaten: Woche 05.06.23 - 11.06.23 (KW23)
Datum Zeit Temp. +2m Bodentemp. Temp.+5cm Temp. Wind Windchill X Diff Temp. Feuchte +2m Feuchte +5cm Luftdruck Regen Wind Richtung Sonnenschein Taupunkt Windchill Windben
05.06.2023 00:00 9,6 C 16,1 C 8,5 C 18,8 C 18,1 C 9,6 C 71 % 58 % 1023,1 hPa 0,0 l/m 0,0 km/h (0 Bft) N 0,00 h 4,6 C 18,1 C 0,0 km/h (0 Bft)
05.06.2023 01:00 8,2 C 16,1 C 7,3 C 7,6 C 6,4 C 0,0 C 75 % 62 % 1023,0 hPa 0,0 l/m 0,0 km/h (0 Bft) N 0,00 h 4,1 C 6,4 C 0,0 km/h (0 Bft)
05.06.2023 02:00 7,3 C 16,0 C 6,5 C 6,7 C 5,6 C 0,0 C 78 % 63 % 1022,9 hPa 0,0 l/m 0,0 km/h (0 Bft) N 0,00 h 3,7 C 5,6 C 0,0 km/h (0 Bft)
05.06.2023 03:00 6,4 C 15,9 C 5,7 C 5,9 C 4,9 C 0,0 C 80 % 66 % 1022,7 hPa 0,0 l/m 0,0 km/h (0 Bft) N 0,00 h 3,2 C 4,9 C 0,0 km/h (0 Bft)
05.06.2023 04:00 5,7 C 15,7 C 5,0 C 5,2 C 4,1 C 0,0 C 82 % 67 % 1022,7 hPa 0,0 l/m 0,0 km/h (0 Bft) N 0,00 h 2,8 C 4,1 C 0,0 km/h (0 Bft)
05.06.2023 05:00 5,2 C 15,6 C 4,6 C 4,7 C 3,8 C 0,0 C 83 % 68 % 1022,6 hPa 0,0 l/m 0,0 km/h (0 Bft) N 0,00 h 2,5 C 3,8 C 0,0 km/h (0 Bft)
05.06.2023 06:00 5,4 C 15,3 C 5,3 C 5,4 C 5,1 C 0,1 C 85 % 69 % 1022,7 hPa 0,0 l/m 0,0 km/h (0 Bft) N 0,00 h 3,1 C 5,1 C 0,0 km/h (0 Bft)
05.06.2023 07:00 7,4 C 15,0 C 7,5 C 10,9 C 10,9 C 3,5 C 87 % 67 % 1022,7 hPa 0,0 l/m 0,0 km/h (0 Bft) N 0,50 h 5,3 C 10,9 C 0,0 km/h (0 Bft)
05.06.2023 08:00 10,8 C 14,8 C 10,4 C 20,1 C 20,1 C 9,3 C 83 % 65 % 1023,2 hPa 0,0 l/m 0,0 km/h (0 Bft) N 0,92 h 8,0 C 20,1 C 0,0 km/h (0 Bft)
05.06.2023 09:00 16,3 C 14,7 C 14,3 C 27,6 C 27,6 C 11,3 C 67 % 59 % 1022,9 hPa 0,0 l/m 0,0 km/h (0 Bft) N 1,00 h 10,1 C 27,6 C 0,2 km/h (0 Bft)
05.06.2023 10:00 20,7 C 14,9 C 20,1 C 26,0 C 26,0 C 5,3 C 55 % 46 % 1022,5 hPa 0,0 l/m 2,3 km/h (1 Bft) O-NO 1,00 h 11,2 C 26,0 C 2,8 km/h (1 Bft)
05.06.2023 11:00 22,3 C 15,2 C 21,8 C 26,8 C 26,8 C 4,5 C 50 % 42 % 1022,2 hPa 0,0 l/m 2,5 km/h (1 Bft) O-NO 0,33 h 11,3 C 26,8 C 1,7 km/h (1 Bft)
05.06.2023 12:00 23,2 C 15,3 C 22,6 C 28,1 C 28,1 C 4,9 C 49 % 42 % 1021,9 hPa 0,0 l/m 3,1 km/h (1 Bft) O-NO 1,62 h 11,9 C 28,1 C 6,1 km/h (2 Bft)
05.06.2023 13:00 23,2 C 15,5 C 22,7 C 26,4 C 26,4 C 3,2 C 49 % 43 % 1021,6 hPa 0,0 l/m 2,8 km/h (1 Bft) O-NO 0,50 h 11,8 C 26,4 C 3,6 km/h (1 Bft)
05.06.2023 14:00 23,9 C 15,8 C 24,2 C 28,1 C 28,1 C 4,3 C 47 % 40 % 1021,3 hPa 0,0 l/m 2,3 km/h (1 Bft) O-NO 1,00 h 11,8 C 28,1 C 2,3 km/h (1 Bft)
05.06.2023 15:00 24,2 C 16,1 C 24,5 C 28,9 C 28,9 C 4,6 C 45 % 38 % 1020,9 hPa 0,0 l/m 2,8 km/h (1 Bft) O-NO 1,00 h 11,4 C 28,9 C 4,0 km/h (1 Bft)
05.06.2023 16:00 24,0 C 16,4 C 24,1 C 26,7 C 26,7 C 2,7 C 42 % 36 % 1020,6 hPa 0,0 l/m 3,4 km/h (1 Bft) O-NO 0,17 h 10,3 C 26,7 C 4,1 km/h (1 Bft)
05.06.2023 17:00 23,6 C 16,6 C 23,6 C 25,1 C 25,1 C 1,5 C 41 % 35 % 1020,4 hPa 0,0 l/m 3,6 km/h (1 Bft) O-NO 0,00 h 9,7 C 25,1 C 4,0 km/h (1 Bft)
05.06.2023 18:00 23,0 C 16,7 C 22,6 C 23,6 C 23,6 C 0,6 C 42 % 35 % 1020,2 hPa 0,0 l/m 1,4 km/h (1 Bft) O-NO 0,00 h 9,5 C 23,6 C 1,8 km/h (1 Bft)
05.06.2023 19:00 22,0 C 16,8 C 21,1 C 22,1 C 22,0 C 0,0 C 47 % 39 % 1020,2 hPa 0,0 l/m 2,1 km/h (1 Bft) NO 0,00 h 10,2 C 22,0 C 2,6 km/h (1 Bft)
05.06.2023 20:00 20,0 C 16,9 C 19,1 C 19,8 C 19,5 C 0,0 C 57 % 49 % 1020,3 hPa 0,0 l/m 0,3 km/h (0 Bft) N 0,00 h 11,2 C 19,5 C 0,0 km/h (0 Bft)
05.06.2023 21:00 18,4 C 16,9 C 17,4 C 18,1 C 17,5 C 0,0 C 61 % 52 % 1020,7 hPa 0,0 l/m 0,0 km/h (0 Bft) N 0,00 h 10,8 C 17,5 C 0,0 km/h (0 Bft)
05.06.2023 22:00 17,2 C 16,9 C 16,3 C 17,0 C 16,5 C 0,0 C 65 % 54 % 1020,8 hPa 0,0 l/m 0,3 km/h (0 Bft) N 0,00 h 10,5 C 16,5 C 0,3 km/h (0 Bft)
05.06.2023 23:00 16,1 C 16,9 C 15,2 C 15,8 C 15,2 C 0,0 C 69 % 57 % 1020,8 hPa 0,0 l/m 0,0 km/h (0 Bft) N 0,00 h 10,4 C 15,2 C 0,0 km/h (0 Bft)
06.06.2023 00:00 15,1 C 16,9 C 14,5 C 14,9 C 14,4 C 0,0 C 74 % 62 % 1020,7 hPa 0,0 l/m 0,0 km/h (0 Bft) N 0,00 h 10,4 C 14,4 C 0,0 km/h (0 Bft)
06.06.2023 01:00 15,3 C 16,9 C 15,1 C 15,3 C 15,2 C 0,0 C 76 % 64 % 1020,5 hPa 0,0 l/m 1,0 km/h (0 Bft) NO 0,00 h 11,0 C 15,2 C 1,6 km/h (1 Bft)
06.06.2023 02:00 15,0 C 17,1 C 14,2 C 14,7 C 14,1 C 0,0 C 78 % 71 % 1020,5 hPa 0,7 l/m 0,6 km/h (0 Bft) N-NO 0,00 h 11,1 C 14,1 C 1,7 km/h (1 Bft)
06.06.2023 03:00 14,1 C 17,1 C 13,3 C 13,7 C 13,1 C 0,0 C 83 % 80 % 1020,3 hPa 0,0 l/m 1,2 km/h (1 Bft) NO 0,00 h 11,3 C 13,1 C 2,0 km/h (1 Bft)
06.06.2023 04:00 13,7 C 17,0 C 13,2 C 13,5 C 13,0 C 0,0 C 86 % 82 % 1020,2 hPa 0,7 l/m 0,6 km/h (0 Bft) N-NO 0,00 h 11,4 C 13,0 C 0,2 km/h (0 Bft)
06.06.2023 05:00 13,6 C 16,9 C 13,0 C 13,4 C 12,9 C 0,0 C 87 % 89 % 1020,0 hPa 1,4 l/m 0,2 km/h (0 Bft) N 0,00 h 11,4 C 12,9 C 0,3 km/h (0 Bft)
06.06.2023 06:00 13,4 C 16,9 C 13,0 C 13,3 C 13,0 C 0,0 C 87 % 90 % 1020,1 hPa 1,4 l/m 0,0 km/h (0 Bft) N 0,00 h 11,3 C 13,0 C 0,0 km/h (0 Bft)
06.06.2023 07:00 13,4 C 16,9 C 13,3 C 13,6 C 13,6 C 0,1 C 88 % 90 % 1020,1 hPa 0,7 l/m 0,0 km/h (0 Bft) N 0,00 h 11,5 C 13,6 C 0,0 km/h (0 Bft)
06.06.2023 08:00 13,6 C 16,8 C 13,7 C 14,1 C 14,1 C 0,5 C 88 % 90 % 1020,2 hPa 2,1 l/m 0,0 km/h (0 Bft) N 0,00 h 11,6 C 14,1 C 0,0 km/h (0 Bft)
06.06.2023 09:00 13,6 C 16,8 C 14,1 C 14,6 C 14,6 C 1,0 C 88 % 90 % 1020,4 hPa 0,0 l/m 0,0 km/h (0 Bft) N 0,00 h 11,7 C 14,6 C 0,0 km/h (0 Bft)
06.06.2023 10:00 13,8 C 16,9 C 14,6 C 15,1 C 15,1 C 1,3 C 88 % 90 % 1020,2 hPa 0,0 l/m 0,1 km/h (0 Bft) N 0,00 h 11,9 C 15,1 C 0,0 km/h (0 Bft)
06.06.2023 11:00 13,9 C 16,9 C 15,0 C 15,7 C 15,7 C 1,8 C 88 % 90 % 1020,4 hPa 0,0 l/m 0,0 km/h (0 Bft) N 0,00 h 12,0 C 15,7 C 0,4 km/h (0 Bft)
06.06.2023 12:00 14,3 C 16,9 C 15,5 C 17,6 C 17,6 C 3,2 C 88 % 90 % 1020,3 hPa 0,0 l/m 0,3 km/h (0 Bft) N 0,42 h 12,4 C 17,6 C 0,9 km/h (0 Bft)
06.06.2023 13:00 14,8 C 16,9 C 15,6 C 17,5 C 17,5 C 2,7 C 88 % 90 % 1020,2 hPa 0,0 l/m 0,1 km/h (0 Bft) N 0,08 h 12,8 C 17,5 C 0,0 km/h (0 Bft)
06.06.2023 14:00 15,7 C 16,9 C 16,3 C 18,8 C 18,8 C 3,1 C 88 % 90 % 1020,0 hPa 0,0 l/m 0,0 km/h (0 Bft) N 0,60 h 13,7 C 18,8 C 0,0 km/h (0 Bft)
06.06.2023 15:00 16,7 C 16,9 C 16,8 C 18,6 C 18,6 C 1,9 C 88 % 90 % 1019,6 hPa 0,0 l/m 0,0 km/h (0 Bft) N 0,00 h 14,7 C 18,6 C 0,0 km/h (0 Bft)
06.06.2023 16:00 16,9 C 16,9 C 16,7 C 19,3 C 19,3 C 2,5 C 88 % 90 % 1019,6 hPa 0,0 l/m 0,0 km/h (0 Bft) N 0,00 h 14,9 C 19,3 C 0,0 km/h (0 Bft)
06.06.2023 17:00 17,2 C 16,9 C 17,1 C 20,0 C 20,0 C 2,8 C 88 % 90 % 1019,3 hPa 0,0 l/m 0,0 km/h (0 Bft) N 0,42 h 15,2 C 20,0 C 0,0 km/h (0 Bft)
06.06.2023 18:00 17,4 C 17,1 C 17,1 C 18,3 C 18,3 C 1,0 C 88 % 89 % 1019,2 hPa 0,0 l/m 0,0 km/h (0 Bft) N 0,00 h 15,3 C 18,3 C 0,0 km/h (0 Bft)
06.06.2023 19:00 17,1 C 17,2 C 16,6 C 17,1 C 17,0 C 0,0 C 87 % 90 % 1019,2 hPa 0,0 l/m 0,0 km/h (0 Bft) N 0,00 h 15,0 C 17,0 C 0,0 km/h (0 Bft)
06.06.2023 20:00 16,8 C 17,2 C 16,3 C 16,7 C 16,5 C 0,0 C 88 % 90 % 1019,4 hPa 0,0 l/m 0,0 km/h (0 Bft) N 0,00 h 14,7 C 16,5 C 0,0 km/h (0 Bft)
06.06.2023 21:00 16,6 C 17,2 C 16,0 C 16,5 C 16,2 C 0,0 C 88 % 90 % 1019,5 hPa 0,0 l/m 0,0 km/h (0 Bft) N 0,00 h 14,6 C 16,2 C 0,0 km/h (0 Bft)
06.06.2023 22:00 16,0 C 17,3 C 15,5 C 15,9 C 15,6 C 0,0 C 88 % 90 % 1019,7 hPa 0,0 l/m 0,0 km/h (0 Bft) N 0,00 h 14,0 C 15,6 C 0,0 km/h (0 Bft)
06.06.2023 23:00 15,6 C 17,3 C 15,6 C 15,6 C 15,6 C 0,0 C 88 % 90 % 1019,7 hPa 0,0 l/m 0,0 km/h (0 Bft) N 0,00 h 13,6 C 15,6 C 0,0 km/h (0 Bft)
07.06.2023 00:00 15,3 C 17,3 C 15,5 C 15,5 C 15,5 C 0,2 C 88 % 90 % 1019,4 hPa 0,0 l/m 0,0 km/h (0 Bft) N 0,00 h 13,4 C 15,5 C 0,0 km/h (0 Bft)
07.06.2023 01:00 15,2 C 17,2 C 15,5 C 15,5 C 15,5 C 0,3 C 88 % 90 % 1019,2 hPa 0,0 l/m 0,0 km/h (0 Bft) N 0,00 h 13,2 C 15,5 C 0,0 km/h (0 Bft)
07.06.2023 02:00 14,8 C 17,2 C 15,0 C 14,9 C 14,9 C 0,2 C 88 % 90 % 1019,3 hPa 1,4 l/m 0,7 km/h (0 Bft) NO 0,00 h 12,8 C 14,9 C 1,8 km/h (1 Bft)
07.06.2023 03:00 14,3 C 17,3 C 14,6 C 14,6 C 14,6 C 0,2 C 88 % 90 % 1019,1 hPa 2,7 l/m 0,0 km/h (0 Bft) N 0,00 h 12,4 C 14,6 C 0,0 km/h (0 Bft)
07.06.2023 04:00 14,0 C 17,4 C 14,4 C 14,4 C 14,4 C 0,3 C 89 % 90 % 1018,5 hPa 0,7 l/m 0,0 km/h (0 Bft) N 0,00 h 12,2 C 14,4 C 0,0 km/h (0 Bft)
07.06.2023 05:00 13,7 C 17,3 C 14,2 C 14,3 C 14,3 C 0,6 C 89 % 90 % 1018,5 hPa 0,0 l/m 0,0 km/h (0 Bft) N 0,42 h 12,0 C 14,3 C 0,0 km/h (0 Bft)
07.06.2023 06:00 13,6 C 17,3 C 14,3 C 14,3 C 14,3 C 0,7 C 89 % 90 % 1018,3 hPa 0,0 l/m 0,0 km/h (0 Bft) N 0,00 h 11,8 C 14,3 C 0,0 km/h (0 Bft)
07.06.2023 07:00 13,6 C 17,3 C 14,5 C 14,6 C 14,6 C 1,0 C 89 % 90 % 1018,3 hPa 0,0 l/m 0,0 km/h (0 Bft) N 0,00 h 11,8 C 14,6 C 0,0 km/h (0 Bft)
07.06.2023 08:00 13,7 C 17,3 C 15,0 C 15,3 C 15,3 C 1,6 C 89 % 90 % 1018,8 hPa 0,0 l/m 0,0 km/h (0 Bft) N 0,00 h 12,0 C 15,3 C 0,0 km/h (0 Bft)
07.06.2023 09:00 14,3 C 17,3 C 15,8 C 17,6 C 17,6 C 3,4 C 89 % 90 % 1019,0 hPa 0,0 l/m 0,0 km/h (0 Bft) N 0,50 h 12,5 C 17,6 C 0,0 km/h (0 Bft)
07.06.2023 10:00 15,1 C 17,3 C 16,7 C 20,9 C 20,9 C 5,8 C 89 % 90 % 1018,9 hPa 0,0 l/m 0,0 km/h (0 Bft) N 1,00 h 13,3 C 20,9 C 0,0 km/h (0 Bft)
07.06.2023 11:00 16,0 C 17,3 C 17,6 C 23,2 C 23,2 C 7,2 C 89 % 90 % 1018,9 hPa 0,0 l/m 0,0 km/h (0 Bft) N 1,00 h 14,2 C 23,2 C 0,0 km/h (0 Bft)
07.06.2023 12:00 17,7 C 17,2 C 18,9 C 26,1 C 26,1 C 8,4 C 88 % 90 % 1018,9 hPa 0,0 l/m 0,0 km/h (0 Bft) N 1,00 h 15,7 C 26,1 C 0,0 km/h (0 Bft)
07.06.2023 13:00 19,7 C 17,0 C 19,6 C 25,0 C 25,0 C 5,3 C 85 % 90 % 1018,9 hPa 0,0 l/m 0,0 km/h (0 Bft) N 1,00 h 17,1 C 25,0 C 0,0 km/h (0 Bft)
07.06.2023 14:00 19,9 C 17,1 C 19,3 C 22,0 C 22,0 C 2,1 C 82 % 90 % 1018,9 hPa 0,0 l/m 0,0 km/h (0 Bft) N 0,17 h 16,7 C 22,0 C 0,0 km/h (0 Bft)
07.06.2023 15:00 20,0 C 17,3 C 19,2 C 20,5 C 20,4 C 0,5 C 82 % 90 % 1018,7 hPa 0,0 l/m 0,0 km/h (0 Bft) N 0,00 h 16,8 C 20,4 C 0,0 km/h (0 Bft)
07.06.2023 16:00 19,7 C 17,6 C 18,4 C 19,4 C 18,8 C 0,0 C 84 % 90 % 1018,4 hPa 0,7 l/m 0,0 km/h (0 Bft) N 0,00 h 16,9 C 18,8 C 0,0 km/h (0 Bft)
07.06.2023 17:00 19,9 C 17,7 C 18,5 C 19,6 C 18,9 C 0,0 C 85 % 90 % 1017,9 hPa 0,0 l/m 0,0 km/h (0 Bft) N 0,00 h 17,3 C 18,9 C 0,0 km/h (0 Bft)
07.06.2023 18:00 19,6 C 17,8 C 18,1 C 19,2 C 18,4 C 0,0 C 85 % 90 % 1018,0 hPa 0,7 l/m 0,0 km/h (0 Bft) N 0,00 h 17,0 C 18,4 C 0,0 km/h (0 Bft)
07.06.2023 19:00 18,6 C 17,9 C 17,4 C 18,3 C 17,5 C 0,0 C 86 % 90 % 1017,6 hPa 0,7 l/m 0,0 km/h (0 Bft) N 0,00 h 16,3 C 17,5 C 0,0 km/h (0 Bft)
07.06.2023 20:00 17,7 C 17,9 C 16,8 C 17,4 C 16,8 C 0,0 C 87 % 90 % 1017,7 hPa 0,0 l/m 0,0 km/h (0 Bft) N 0,00 h 15,5 C 16,8 C 0,0 km/h (0 Bft)
07.06.2023 21:00 16,8 C 17,8 C 16,1 C 16,6 C 16,1 C 0,0 C 87 % 90 % 1017,8 hPa 0,0 l/m 0,0 km/h (0 Bft) N 0,00 h 14,7 C 16,1 C 0,0 km/h (0 Bft)
07.06.2023 22:00 16,2 C 17,8 C 15,8 C 16,0 C 15,7 C 0,0 C 88 % 90 % 1017,8 hPa 0,0 l/m 0,0 km/h (0 Bft) N 0,00 h 14,2 C 15,7 C 0,0 km/h (0 Bft)
07.06.2023 23:00 15,6 C 17,8 C 15,4 C 15,5 C 15,4 C 0,0 C 88 % 90 % 1017,7 hPa 0,0 l/m 0,0 km/h (0 Bft) N 0,00 h 13,6 C 15,4 C 0,0 km/h (0 Bft)
08.06.2023 00:00 15,2 C 17,7 C 15,3 C 15,3 C 15,3 C 0,1 C 88 % 90 % 1017,5 hPa 0,0 l/m 0,0 km/h (0 Bft) N 0,00 h 13,2 C 15,3 C 0,0 km/h (0 Bft)
08.06.2023 01:00 14,8 C 17,7 C 15,2 C 15,2 C 15,2 C 0,4 C 88 % 90 % 1017,6 hPa 0,0 l/m 0,0 km/h (0 Bft) N 0,00 h 12,8 C 15,2 C 0,0 km/h (0 Bft)
08.06.2023 02:00 14,5 C 17,7 C 15,0 C 15,0 C 15,0 C 0,6 C 88 % 90 % 1017,5 hPa 0,0 l/m 0,0 km/h (0 Bft) N 0,00 h 12,5 C 15,0 C 0,0 km/h (0 Bft)
08.06.2023 03:00 14,3 C 17,6 C 14,9 C 14,9 C 14,9 C 0,6 C 88 % 90 % 1016,5 hPa 0,0 l/m 0,0 km/h (0 Bft) N 0,00 h 12,3 C 14,9 C 0,0 km/h (0 Bft)
08.06.2023 04:00 14,0 C 17,6 C 14,6 C 14,5 C 14,5 C 0,6 C 88 % 90 % 1016,2 hPa 0,0 l/m 0,0 km/h (0 Bft) N 0,00 h 12,0 C 14,5 C 0,0 km/h (0 Bft)
08.06.2023 05:00 13,8 C 17,6 C 14,6 C 14,6 C 14,6 C 0,8 C 89 % 90 % 1016,0 hPa 0,0 l/m 0,0 km/h (0 Bft) N 0,58 h 12,0 C 14,6 C 0,0 km/h (0 Bft)
08.06.2023 06:00 13,7 C 17,6 C 14,6 C 14,7 C 14,7 C 1,0 C 89 % 90 % 1015,7 hPa 0,0 l/m 0,0 km/h (0 Bft) N 0,00 h 11,9 C 14,7 C 0,0 km/h (0 Bft)
08.06.2023 07:00 13,8 C 17,5 C 15,0 C 15,2 C 15,2 C 1,4 C 89 % 90 % 1015,8 hPa 0,0 l/m 0,0 km/h (0 Bft) N 0,00 h 12,0 C 15,2 C 0,0 km/h (0 Bft)
08.06.2023 08:00 14,4 C 17,5 C 15,6 C 16,2 C 16,2 C 1,7 C 89 % 90 % 1016,2 hPa 0,0 l/m 0,0 km/h (0 Bft) N 0,00 h 12,7 C 16,2 C 0,0 km/h (0 Bft)
08.06.2023 09:00 15,3 C 17,4 C 16,6 C 18,1 C 18,1 C 2,8 C 89 % 90 % 1016,2 hPa 0,0 l/m 0,0 km/h (0 Bft) N 0,33 h 13,5 C 18,1 C 0,0 km/h (0 Bft)
08.06.2023 10:00 16,1 C 17,2 C 17,3 C 21,1 C 21,1 C 5,0 C 89 % 90 % 1016,2 hPa 0,0 l/m 0,0 km/h (0 Bft) N 1,00 h 14,2 C 21,1 C 0,0 km/h (0 Bft)
08.06.2023 11:00 17,6 C 17,2 C 18,2 C 22,9 C 22,9 C 5,3 C 88 % 90 % 1016,3 hPa 0,0 l/m 0,0 km/h (0 Bft) N 1,00 h 15,6 C 22,9 C 0,0 km/h (0 Bft)
08.06.2023 12:00 19,5 C 17,3 C 18,2 C 22,5 C 22,5 C 3,0 C 85 % 90 % 1016,2 hPa 0,0 l/m 0,0 km/h (0 Bft) N 0,27 h 17,0 C 22,5 C 0,0 km/h (0 Bft)
08.06.2023 13:00 20,8 C 17,1 C 19,3 C 25,5 C 25,5 C 4,6 C 81 % 89 % 1015,6 hPa 0,7 l/m 0,0 km/h (0 Bft) N 0,67 h 17,3 C 25,5 C 0,0 km/h (0 Bft)
08.06.2023 14:00 23,1 C 17,0 C 22,4 C 30,0 C 30,0 C 6,9 C 72 % 78 % 1015,1 hPa 0,0 l/m 0,1 km/h (0 Bft) N 1,00 h 17,8 C 30,0 C 0,4 km/h (0 Bft)
08.06.2023 15:00 23,5 C 17,2 C 22,8 C 27,2 C 27,2 C 3,6 C 72 % 72 % 1014,7 hPa 0,0 l/m 0,1 km/h (0 Bft) N 0,33 h 18,1 C 27,2 C 0,6 km/h (0 Bft)
08.06.2023 16:00 22,9 C 17,3 C 21,6 C 27,1 C 27,1 C 4,2 C 68 % 69 % 1014,5 hPa 0,0 l/m 1,2 km/h (1 Bft) O 0,73 h 16,7 C 27,1 C 2,7 km/h (1 Bft)
08.06.2023 17:00 19,9 C 17,5 C 18,5 C 27,8 C 27,8 C 7,9 C 71 % 73 % 1014,3 hPa 0,0 l/m 0,0 km/h (0 Bft) N 1,00 h 14,5 C 27,8 C 0,0 km/h (0 Bft)
08.06.2023 18:00 19,5 C 17,5 C 18,9 C 27,8 C 27,8 C 8,3 C 75 % 73 % 1014,4 hPa 0,0 l/m 0,0 km/h (0 Bft) N 1,00 h 14,9 C 27,8 C 0,0 km/h (0 Bft)
08.06.2023 19:00 20,1 C 17,5 C 18,9 C 27,8 C 27,8 C 7,7 C 74 % 76 % 1014,1 hPa 0,0 l/m 0,0 km/h (0 Bft) N 1,00 h 15,4 C 27,8 C 0,0 km/h (0 Bft)
08.06.2023 20:00 19,1 C 17,8 C 17,7 C 27,8 C 27,8 C 8,7 C 78 % 81 % 1013,9 hPa 0,0 l/m 0,0 km/h (0 Bft) N 1,00 h 15,2 C 27,8 C 0,0 km/h (0 Bft)
08.06.2023 21:00 17,5 C 17,9 C 16,0 C 27,8 C 27,8 C 10,3 C 81 % 84 % 1014,0 hPa 0,0 l/m 0,0 km/h (0 Bft) N 0,17 h 14,2 C 27,8 C 0,0 km/h (0 Bft)
08.06.2023 22:00 16,2 C 17,9 C 15,2 C 27,8 C 27,8 C 11,6 C 84 % 90 % 1014,3 hPa 0,0 l/m 0,0 km/h (0 Bft) N 0,00 h 13,6 C 27,8 C 0,0 km/h (0 Bft)
08.06.2023 23:00 15,4 C 17,8 C 14,5 C 27,8 C 27,8 C 12,4 C 86 % 90 % 1014,4 hPa 0,0 l/m 0,0 km/h (0 Bft) N 0,00 h 13,1 C 27,8 C 0,0 km/h (0 Bft)
09.06.2023 00:00 14,8 C 17,7 C 14,2 C 27,8 C 27,8 C 13,0 C 87 % 90 % 1014,9 hPa 0,0 l/m 0,0 km/h (0 Bft) N 0,00 h 12,7 C 27,8 C 0,0 km/h (0 Bft)
09.06.2023 01:00 13,9 C 17,6 C 13,2 C 20,6 C 20,3 C 6,8 C 87 % 90 % 1014,6 hPa 0,0 l/m 0,0 km/h (0 Bft) N 0,00 h 11,8 C 20,3 C 0,0 km/h (0 Bft)
09.06.2023 02:00 13,1 C 17,5 C 12,7 C 12,9 C 12,5 C 0,0 C 88 % 90 % 1014,2 hPa 0,0 l/m 0,0 km/h (0 Bft) N 0,00 h 11,1 C 12,5 C 0,0 km/h (0 Bft)
09.06.2023 03:00 12,5 C 17,4 C 12,2 C 12,4 C 12,0 C 0,0 C 88 % 90 % 1014,2 hPa 0,0 l/m 0,0 km/h (0 Bft) N 0,00 h 10,6 C 12,0 C 0,0 km/h (0 Bft)
09.06.2023 04:00 11,8 C 17,3 C 11,6 C 11,7 C 11,3 C 0,0 C 88 % 90 % 1014,7 hPa 0,0 l/m 0,0 km/h (0 Bft) N 0,00 h 9,9 C 11,3 C 0,0 km/h (0 Bft)
09.06.2023 05:00 11,3 C 17,1 C 11,4 C 11,3 C 11,2 C 0,0 C 88 % 90 % 1014,2 hPa 0,0 l/m 0,0 km/h (0 Bft) N 0,00 h 9,3 C 11,2 C 0,0 km/h (0 Bft)
09.06.2023 06:00 11,2 C 17,0 C 11,9 C 12,2 C 12,2 C 1,1 C 88 % 90 % 1014,3 hPa 0,0 l/m 0,0 km/h (0 Bft) N 0,00 h 9,2 C 12,2 C 0,0 km/h (0 Bft)
09.06.2023 07:00 12,2 C 16,9 C 13,5 C 19,2 C 19,2 C 7,0 C 88 % 90 % 1015,0 hPa 0,0 l/m 0,0 km/h (0 Bft) N 0,83 h 10,3 C 19,2 C 0,0 km/h (0 Bft)
09.06.2023 08:00 15,1 C 16,8 C 15,1 C 26,9 C 26,9 C 11,8 C 89 % 90 % 1015,0 hPa 0,0 l/m 0,0 km/h (0 Bft) N 1,00 h 13,2 C 26,9 C 0,0 km/h (0 Bft)
09.06.2023 09:00 18,6 C 16,6 C 16,6 C 27,1 C 27,1 C 8,4 C 84 % 88 % 1015,1 hPa 0,0 l/m 0,0 km/h (0 Bft) N 1,00 h 15,8 C 27,1 C 0,0 km/h (0 Bft)
09.06.2023 10:00 20,3 C 16,6 C 18,8 C 26,4 C 26,4 C 6,1 C 76 % 78 % 1015,0 hPa 0,0 l/m 0,0 km/h (0 Bft) N 1,00 h 16,0 C 26,4 C 0,0 km/h (0 Bft)
09.06.2023 11:00 22,5 C 16,6 C 20,7 C 30,2 C 30,2 C 7,7 C 69 % 70 % 1015,0 hPa 0,0 l/m 0,0 km/h (0 Bft) N 1,00 h 16,5 C 30,2 C 0,2 km/h (0 Bft)
09.06.2023 12:00 24,7 C 16,8 C 22,9 C 31,8 C 31,8 C 7,0 C 61 % 62 % 1014,7 hPa 0,0 l/m 0,2 km/h (0 Bft) N 1,00 h 16,6 C 31,8 C 1,2 km/h (1 Bft)
09.06.2023 13:00 26,4 C 17,0 C 24,2 C 31,1 C 31,1 C 4,7 C 53 % 53 % 1014,2 hPa 0,0 l/m 0,0 km/h (0 Bft) N 1,00 h 15,9 C 31,1 C 0,0 km/h (0 Bft)
09.06.2023 14:00 26,6 C 17,2 C 25,9 C 31,7 C 31,7 C 5,1 C 50 % 49 % 1013,7 hPa 0,0 l/m 0,1 km/h (0 Bft) N 1,00 h 15,2 C 31,7 C 0,0 km/h (0 Bft)
09.06.2023 15:00 26,6 C 17,4 C 25,9 C 30,8 C 30,8 C 4,2 C 47 % 46 % 1013,7 hPa 0,0 l/m 0,1 km/h (0 Bft) N 0,83 h 14,5 C 30,8 C 0,4 km/h (0 Bft)
09.06.2023 16:00 26,5 C 17,7 C 26,3 C 31,0 C 31,0 C 4,6 C 49 % 48 % 1013,4 hPa 0,0 l/m 0,2 km/h (0 Bft) N 0,50 h 14,7 C 31,0 C 0,5 km/h (0 Bft)
09.06.2023 17:00 27,0 C 17,8 C 26,3 C 30,7 C 30,7 C 3,7 C 47 % 47 % 1013,4 hPa 0,0 l/m 0,0 km/h (0 Bft) N 0,50 h 14,5 C 30,7 C 0,0 km/h (0 Bft)
09.06.2023 18:00 26,2 C 17,9 C 24,9 C 28,4 C 28,4 C 2,2 C 49 % 51 % 1013,5 hPa 0,0 l/m 0,1 km/h (0 Bft) N 0,00 h 14,7 C 28,4 C 0,8 km/h (0 Bft)
09.06.2023 19:00 26,1 C 18,1 C 23,9 C 27,6 C 27,6 C 1,5 C 51 % 56 % 1013,4 hPa 0,0 l/m 0,0 km/h (0 Bft) N 0,08 h 15,2 C 27,6 C 0,0 km/h (0 Bft)
09.06.2023 20:00 24,0 C 18,2 C 21,4 C 24,1 C 23,8 C 0,3 C 56 % 64 % 1013,9 hPa 0,0 l/m 0,0 km/h (0 Bft) N 0,00 h 14,5 C 23,8 C 0,0 km/h (0 Bft)
09.06.2023 21:00 21,4 C 18,3 C 19,2 C 21,0 C 20,1 C 0,0 C 63 % 67 % 1014,0 hPa 0,0 l/m 0,0 km/h (0 Bft) N 0,00 h 13,9 C 20,1 C 0,0 km/h (0 Bft)
09.06.2023 22:00 18,6 C 18,3 C 16,7 C 18,1 C 17,0 C 0,0 C 70 % 72 % 1013,9 hPa 0,0 l/m 0,0 km/h (0 Bft) N 0,00 h 13,0 C 17,0 C 0,0 km/h (0 Bft)
09.06.2023 23:00 16,8 C 18,4 C 15,4 C 16,3 C 15,2 C 0,0 C 75 % 76 % 1014,0 hPa 0,0 l/m 0,0 km/h (0 Bft) N 0,00 h 12,5 C 15,2 C 0,0 km/h (0 Bft)
10.06.2023 00:00 15,5 C 18,4 C 14,3 C 14,9 C 13,8 C 0,0 C 80 % 80 % 1014,1 hPa 0,0 l/m 0,0 km/h (0 Bft) N 0,00 h 12,0 C 13,8 C 0,0 km/h (0 Bft)
10.06.2023 01:00 14,7 C 18,3 C 13,9 C 14,3 C 13,7 C 0,0 C 83 % 81 % 1014,1 hPa 0,0 l/m 0,0 km/h (0 Bft) N 0,00 h 11,8 C 13,7 C 0,0 km/h (0 Bft)
10.06.2023 02:00 14,1 C 18,2 C 13,3 C 13,7 C 13,0 C 0,0 C 85 % 82 % 1013,8 hPa 0,0 l/m 0,0 km/h (0 Bft) N 0,00 h 11,5 C 13,0 C 0,0 km/h (0 Bft)
10.06.2023 03:00 13,4 C 18,1 C 12,6 C 13,0 C 12,2 C 0,0 C 86 % 83 % 1014,3 hPa 0,0 l/m 0,0 km/h (0 Bft) N 0,00 h 11,1 C 12,2 C 0,0 km/h (0 Bft)
10.06.2023 04:00 12,9 C 18,0 C 12,2 C 12,6 C 11,9 C 0,0 C 87 % 85 % 1014,4 hPa 0,0 l/m 0,0 km/h (0 Bft) N 0,00 h 10,7 C 11,9 C 0,0 km/h (0 Bft)
10.06.2023 05:00 12,5 C 17,8 C 11,9 C 12,2 C 11,6 C 0,0 C 87 % 90 % 1014,8 hPa 0,0 l/m 0,0 km/h (0 Bft) N 0,00 h 10,4 C 11,6 C 0,0 km/h (0 Bft)
10.06.2023 06:00 12,4 C 17,6 C 12,3 C 12,5 C 12,3 C 0,2 C 88 % 90 % 1015,2 hPa 0,0 l/m 0,0 km/h (0 Bft) N 0,00 h 10,4 C 12,3 C 0,0 km/h (0 Bft)
10.06.2023 07:00 13,9 C 17,3 C 15,1 C 19,1 C 19,1 C 5,2 C 88 % 87 % 1015,2 hPa 0,0 l/m 0,0 km/h (0 Bft) N 0,83 h 11,9 C 19,1 C 0,0 km/h (0 Bft)
10.06.2023 08:00 18,4 C 17,2 C 17,0 C 20,0 C 20,0 C 1,6 C 83 % 79 % 1015,6 hPa 0,0 l/m 0,0 km/h (0 Bft) N 0,08 h 15,3 C 20,0 C 0,0 km/h (0 Bft)
10.06.2023 09:00 20,6 C 17,1 C 18,4 C 20,4 C 20,0 C 0,0 C 76 % 77 % 1016,3 hPa 0,0 l/m 0,0 km/h (0 Bft) N 0,00 h 16,2 C 20,0 C 0,0 km/h (0 Bft)
10.06.2023 10:00 21,7 C 17,2 C 20,6 C 21,2 C 20,0 C 0,0 C 73 % 72 % 1016,3 hPa 0,0 l/m 0,0 km/h (0 Bft) N 0,00 h 16,7 C 20,0 C 0,0 km/h (0 Bft)
10.06.2023 11:00 23,3 C 17,4 C 23,0 C 22,2 C 20,0 C 0,0 C 68 % 65 % 1016,2 hPa 0,0 l/m 0,0 km/h (0 Bft) N 0,00 h 16,9 C 20,0 C 0,0 km/h (0 Bft)
10.06.2023 12:00 24,3 C 17,6 C 23,7 C 22,9 C 20,0 C 0,0 C 61 % 58 % 1016,3 hPa 0,0 l/m 0,0 km/h (0 Bft) N 0,00 h 16,4 C 20,0 C 0,0 km/h (0 Bft)
10.06.2023 13:00 25,2 C 17,8 C 24,5 C 27,1 C 26,3 C 2,3 C 55 % 51 % 1016,0 hPa 0,0 l/m 6,1 km/h (2 Bft) NO 0,08 h 15,4 C 26,3 C 9,2 km/h (2 Bft)
10.06.2023 14:00 25,9 C 18,0 C 26,5 C 29,4 C 29,4 C 3,5 C 53 % 50 % 1015,5 hPa 0,0 l/m 7,0 km/h (2 Bft) NO 0,92 h 15,6 C 29,4 C 8,6 km/h (2 Bft)
10.06.2023 15:00 26,1 C 18,2 C 26,4 C 30,4 C 30,4 C 4,3 C 52 % 48 % 1015,7 hPa 0,0 l/m 4,9 km/h (1 Bft) NO 0,92 h 15,5 C 30,4 C 6,4 km/h (2 Bft)
10.06.2023 16:00 25,2 C 18,3 C 24,8 C 29,0 C 29,0 C 3,8 C 56 % 53 % 1015,4 hPa 0,0 l/m 0,1 km/h (0 Bft) N 1,00 h 15,6 C 29,0 C 0,0 km/h (0 Bft)
10.06.2023 17:00 26,2 C 18,4 C 26,7 C 29,0 C 29,0 C 2,8 C 46 % 44 % 1015,1 hPa 0,0 l/m 0,0 km/h (0 Bft) N 0,00 h 13,8 C 29,0 C 0,0 km/h (0 Bft)
10.06.2023 18:00 26,2 C 18,5 C 25,8 C 29,0 C 29,0 C 2,8 C 43 % 40 % 1015,5 hPa 0,0 l/m 0,0 km/h (0 Bft) N 0,00 h 12,7 C 29,0 C 0,0 km/h (0 Bft)
10.06.2023 19:00 25,4 C 18,6 C 24,8 C 29,0 C 29,0 C 3,6 C 47 % 43 % 1015,8 hPa 0,0 l/m 0,0 km/h (0 Bft) N 0,92 h 13,3 C 29,0 C 0,0 km/h (0 Bft)
10.06.2023 20:00 23,7 C 18,6 C 23,1 C 29,0 C 29,0 C 5,3 C 54 % 49 % 1016,1 hPa 0,0 l/m 0,0 km/h (0 Bft) N 1,00 h 13,9 C 29,0 C 0,0 km/h (0 Bft)
10.06.2023 21:00 21,6 C 18,7 C 20,0 C 29,0 C 29,0 C 7,4 C 61 % 59 % 1016,7 hPa 0,0 l/m 0,0 km/h (0 Bft) N 0,17 h 13,8 C 29,0 C 0,0 km/h (0 Bft)
10.06.2023 22:00 19,3 C 18,8 C 17,5 C 29,0 C 29,0 C 9,7 C 69 % 68 % 1017,1 hPa 0,0 l/m 0,0 km/h (0 Bft) N 0,00 h 13,3 C 29,0 C 0,0 km/h (0 Bft)
10.06.2023 23:00 17,3 C 18,9 C 15,8 C 29,0 C 29,0 C 11,8 C 76 % 74 % 1017,3 hPa 0,0 l/m 0,0 km/h (0 Bft) N 0,00 h 13,0 C 29,0 C 0,0 km/h (0 Bft)
11.06.2023 00:00 15,5 C 18,9 C 14,4 C 29,0 C 29,0 C 13,5 C 80 % 79 % 1017,6 hPa 0,0 l/m 0,0 km/h (0 Bft) N 0,00 h 12,1 C 29,0 C 0,0 km/h (0 Bft)
11.06.2023 01:00 14,5 C 18,9 C 13,5 C 29,0 C 29,0 C 14,5 C 83 % 81 % 1017,5 hPa 0,0 l/m 0,0 km/h (0 Bft) N 0,00 h 11,6 C 29,0 C 0,0 km/h (0 Bft)
11.06.2023 02:00 13,5 C 18,7 C 12,7 C 29,0 C 29,0 C 15,5 C 84 % 81 % 1017,8 hPa 0,0 l/m 0,0 km/h (0 Bft) N 0,00 h 10,9 C 29,0 C 0,0 km/h (0 Bft)
11.06.2023 03:00 12,8 C 18,5 C 12,1 C 29,0 C 29,0 C 16,2 C 85 % 81 % 1018,0 hPa 0,0 l/m 0,0 km/h (0 Bft) N 0,00 h 10,4 C 29,0 C 0,0 km/h (0 Bft)
11.06.2023 04:00 12,2 C 18,4 C 11,4 C 29,0 C 29,0 C 16,8 C 86 % 81 % 1018,4 hPa 0,0 l/m 0,0 km/h (0 Bft) N 0,00 h 9,9 C 29,0 C 0,0 km/h (0 Bft)
11.06.2023 05:00 11,2 C 18,1 C 10,5 C 29,0 C 29,0 C 17,9 C 87 % 81 % 1018,5 hPa 0,0 l/m 0,0 km/h (0 Bft) N 0,83 h 9,0 C 29,0 C 0,0 km/h (0 Bft)
11.06.2023 06:00 10,9 C 17,8 C 10,6 C 29,0 C 29,0 C 18,1 C 88 % 82 % 1018,7 hPa 0,0 l/m 0,0 km/h (0 Bft) N 1,00 h 8,9 C 29,0 C 0,0 km/h (0 Bft)
11.06.2023 07:00 12,8 C 17,4 C 13,7 C 29,0 C 29,0 C 16,1 C 88 % 79 % 1018,8 hPa 0,0 l/m 0,0 km/h (0 Bft) N 1,00 h 10,9 C 29,0 C 0,0 km/h (0 Bft)
11.06.2023 08:00 18,3 C 17,2 C 16,6 C 29,0 C 29,0 C 10,7 C 71 % 64 % 1019,0 hPa 0,0 l/m 0,0 km/h (0 Bft) N 1,00 h 12,9 C 29,0 C 0,0 km/h (0 Bft)
11.06.2023 09:00 21,6 C 17,2 C 18,9 C 29,0 C 29,0 C 7,4 C 59 % 56 % 1019,2 hPa 0,0 l/m 0,0 km/h (0 Bft) N 1,00 h 13,3 C 29,0 C 0,0 km/h (0 Bft)
11.06.2023 10:00 22,6 C 17,3 C 21,5 C 29,0 C 29,0 C 6,4 C 53 % 47 % 1019,0 hPa 0,0 l/m 0,0 km/h (0 Bft) N 1,00 h 12,5 C 29,0 C 0,0 km/h (0 Bft)
11.06.2023 11:00 23,1 C 17,4 C 22,5 C 29,0 C 29,0 C 5,9 C 55 % 49 % 1018,9 hPa 0,0 l/m 0,0 km/h (0 Bft) N 1,00 h 13,5 C 29,0 C 0,0 km/h (0 Bft)
11.06.2023 12:00 23,9 C 17,6 C 23,4 C 29,0 C 29,0 C 5,1 C 49 % 44 % 1019,0 hPa 0,0 l/m 0,0 km/h (0 Bft) N 1,00 h 12,6 C 29,0 C 0,0 km/h (0 Bft)
11.06.2023 13:00 25,1 C 17,7 C 24,2 C 29,0 C 29,0 C 3,9 C 46 % 42 % 1018,9 hPa 0,0 l/m 0,0 km/h (0 Bft) N 1,00 h 12,6 C 29,0 C 0,0 km/h (0 Bft)
11.06.2023 14:00 25,7 C 17,9 C 26,0 C 29,0 C 29,0 C 3,3 C 43 % 39 % 1018,5 hPa 0,0 l/m 0,0 km/h (0 Bft) N 0,90 h 12,2 C 29,0 C 0,0 km/h (0 Bft)
11.06.2023 15:00 25,5 C 18,1 C 25,8 C 29,0 C 29,0 C 3,5 C 45 % 40 % 1018,4 hPa 0,0 l/m 0,0 km/h (0 Bft) N 1,07 h 12,6 C 29,0 C 0,0 km/h (0 Bft)
11.06.2023 16:00 25,3 C 18,3 C 25,6 C 29,0 C 29,0 C 3,7 C 45 % 39 % 1018,4 hPa 0,0 l/m 0,0 km/h (0 Bft) N 0,93 h 12,4 C 29,0 C 0,0 km/h (0 Bft)
11.06.2023 17:00 25,3 C 18,4 C 25,8 C 29,0 C 29,0 C 3,7 C 42 % 36 % 1018,1 hPa 0,0 l/m 0,0 km/h (0 Bft) N 1,00 h 11,4 C 29,0 C 0,0 km/h (0 Bft)
11.06.2023 18:00 25,0 C 18,5 C 24,8 C 29,0 C 29,0 C 4,0 C 40 % 35 % 1017,8 hPa 0,0 l/m 0,0 km/h (0 Bft) N 1,00 h 10,5 C 29,0 C 0,0 km/h (0 Bft)
11.06.2023 19:00 24,4 C 18,6 C 24,0 C 29,0 C 29,0 C 4,6 C 42 % 36 % 1017,8 hPa 0,0 l/m 0,0 km/h (0 Bft) N 1,00 h 10,7 C 29,0 C 0,0 km/h (0 Bft)
11.06.2023 20:00 23,1 C 18,6 C 22,2 C 29,0 C 29,0 C 5,9 C 47 % 40 % 1017,7 hPa 0,0 l/m 0,0 km/h (0 Bft) N 0,97 h 11,1 C 29,0 C 0,0 km/h (0 Bft)
11.06.2023 21:00 20,7 C 18,7 C 18,6 C 29,0 C 29,0 C 8,3 C 56 % 51 % 1017,7 hPa 0,0 l/m 0,0 km/h (0 Bft) N 0,20 h 11,6 C 29,0 C 0,0 km/h (0 Bft)
11.06.2023 22:00 18,5 C 18,6 C 16,6 C 29,0 C 29,0 C 10,5 C 63 % 58 % 1018,1 hPa 0,0 l/m 0,0 km/h (0 Bft) N 0,00 h 11,4 C 29,0 C 0,0 km/h (0 Bft)
11.06.2023 23:00 17,0 C 18,6 C 15,4 C 29,0 C 29,0 C 12,0 C 69 % 64 % 1018,4 hPa 0,0 l/m 0,0 km/h (0 Bft) N 0,00 h 11,2 C 29,0 C 0,0 km/h (0 Bft)
Min-Datum _ 05.06.23 05.06.23 05.06.23 05.06.23 05.06.23 05.06.23 11.06.23 05.06.23 09.06.23 - 05.06.23 - - 05.06.23 05.06.23 05.06.23
_ Min-Zeit 05:25 09:10 04:51 05:30 04:51 00:35 18:11 17:25 17:20 - 00:00 - - 05:25 04:51 00:00
Minimum _ 5,1 C 14,6 C 4,6 C 4,6 C 3,6 C 0,0 C 39 % 34 % 1013,2 hPa - 0,0 km/h (0 Bft) - - 2,5 C 3,6 C 0,0 km/h (0 Bft)
Max-Datum _ 09.06.23 10.06.23 09.06.23 09.06.23 09.06.23 05.06.23 07.06.23 06.06.23 05.06.23 07.06.23 10.06.23 - 05.06.23 08.06.23 09.06.23 10.06.23
_ Max-Zeit 15:20 22:45 15:15 15:15 15:15 00:30 03:45 05:05 08:41 03:00 13:25 - 12:18 15:35 15:15 13:25
Maximum _ 27,2 C 18,9 C 27,5 C 33,5 C 33,5 C 19,6 C 89 % 90 % 1023,4 hPa 2,7 l/m 9,5 km/h
NO (2 Bft)
- 1,00 h 18,2 C 33,5 C 19,2 km/h
NO (3 Bft)
Durchschnitt _ 17,7 C 17,4 C 17,3 C 21,3 C 21,1 C 3,7 C 74 % 73 % 1017,7 hPa #14,4 l/m 0,3 km/h (0 Bft) O-NO #56:17 h 12,6 C 21,1 C 0,4 km/h (0 Bft)
2023 www.wetterstation-wechselburg.de